SWA1644 KMCO-KSRQ
Flight info
| Callsign | SWA1644 |
|---|---|
| Flight time | 0h 28m |
| Altitude | 14000 |
| Route | FSHUN4 PLUMR CURSD |
| Aircraft | B738/M-SADE2E3GIJ4RWZ/LB1D1 |
Departure
| Time | 2026-05-06 03:11 |
|---|---|
| Airport | Orlando International Airport (KMCO) |
Arrival
| Time | 2026-05-06 03:39 |
|---|---|
| Airport | Sarasota Bradenton International Airport (KSRQ) |
| Time | Latitude | Longitude | Altitude | Speed | Heading |
|---|---|---|---|---|---|
| 2026-05-06 02:56 | 28.43445 | -81.30151 | 105 ft | 0 kts | 34° |
| 2026-05-06 03:02 | 28.43441 | -81.30154 | 105 ft | 2 kts | 34° |
| 2026-05-06 03:02 | 28.43427 | -81.30164 | 105 ft | 3 kts | 34° |
| 2026-05-06 03:02 | 28.43411 | -81.30177 | 105 ft | 3 kts | 34° |
| 2026-05-06 03:02 | 28.43394 | -81.30190 | 105 ft | 3 kts | 34° |
| 2026-05-06 03:03 | 28.43377 | -81.30203 | 105 ft | 3 kts | 34° |
| 2026-05-06 03:03 | 28.43360 | -81.30216 | 105 ft | 3 kts | 34° |
| 2026-05-06 03:03 | 28.43358 | -81.30213 | 105 ft | 3 kts | 70° |
| 2026-05-06 03:03 | 28.43319 | -81.30158 | 105 ft | 18 kts | 126° |
| 2026-05-06 03:04 | 28.43284 | -81.30030 | 105 ft | 18 kts | 91° |
| 2026-05-06 03:04 | 28.43325 | -81.29893 | 105 ft | 18 kts | 72° |
| 2026-05-06 03:04 | 28.43276 | -81.29814 | 105 ft | 18 kts | 184° |
| 2026-05-06 03:04 | 28.43120 | -81.29810 | 105 ft | 24 kts | 181° |
| 2026-05-06 03:05 | 28.42954 | -81.29809 | 105 ft | 24 kts | 179° |
| 2026-05-06 03:05 | 28.42785 | -81.29804 | 105 ft | 23 kts | 179° |
| 2026-05-06 03:05 | 28.42630 | -81.29803 | 105 ft | 21 kts | 180° |
| 2026-05-06 03:05 | 28.42490 | -81.29802 | 105 ft | 20 kts | 180° |
| 2026-05-06 03:06 | 28.42352 | -81.29802 | 105 ft | 20 kts | 180° |
| 2026-05-06 03:06 | 28.42282 | -81.29881 | 105 ft | 21 kts | 270° |
| 2026-05-06 03:06 | 28.42282 | -81.30081 | 105 ft | 28 kts | 270° |
| 2026-05-06 03:06 | 28.42280 | -81.30314 | 105 ft | 31 kts | 263° |
| 2026-05-06 03:07 | 28.42259 | -81.30526 | 105 ft | 27 kts | 266° |
| 2026-05-06 03:07 | 28.42248 | -81.30750 | 105 ft | 30 kts | 266° |
| 2026-05-06 03:07 | 28.42237 | -81.30973 | 105 ft | 29 kts | 270° |
| 2026-05-06 03:07 | 28.42260 | -81.31196 | 105 ft | 26 kts | 278° |
| 2026-05-06 03:08 | 28.42262 | -81.31404 | 105 ft | 26 kts | 268° |
| 2026-05-06 03:08 | 28.42259 | -81.31589 | 105 ft | 24 kts | 270° |
| 2026-05-06 03:08 | 28.42260 | -81.31793 | 105 ft | 24 kts | 261° |
| 2026-05-06 03:08 | 28.42144 | -81.31867 | 105 ft | 22 kts | 188° |
| 2026-05-06 03:09 | 28.41990 | -81.31871 | 105 ft | 22 kts | 183° |
| 2026-05-06 03:09 | 28.41841 | -81.31878 | 105 ft | 21 kts | 177° |
| 2026-05-06 03:09 | 28.41695 | -81.31869 | 105 ft | 20 kts | 176° |
| 2026-05-06 03:09 | 28.41577 | -81.31864 | 105 ft | 16 kts | 195° |
| 2026-05-06 03:10 | 28.41545 | -81.31981 | 105 ft | 30 kts | 270° |
| 2026-05-06 03:10 | 28.41546 | -81.32197 | 105 ft | 14 kts | 275° |
| 2026-05-06 03:10 | 28.41624 | -81.32205 | 105 ft | 32 kts | 360° |
| 2026-05-06 03:10 | 28.42219 | -81.32201 | 105 ft | 140 kts | 359° |
| 2026-05-06 03:11 | 28.43421 | -81.32215 | 645 ft | 196 kts | 360° |
| 2026-05-06 03:11 | 28.44918 | -81.32253 | 1386 ft | 230 kts | 2° |
| 2026-05-06 03:11 | 28.46551 | -81.32292 | 2112 ft | 241 kts | 2° |
| 2026-05-06 03:11 | 28.48254 | -81.32341 | 2976 ft | 245 kts | 0° |
| 2026-05-06 03:12 | 28.49991 | -81.32424 | 3990 ft | 253 kts | 358° |
| 2026-05-06 03:12 | 28.51749 | -81.32720 | 5000 ft | 258 kts | 348° |
| 2026-05-06 03:12 | 28.53526 | -81.33146 | 6006 ft | 263 kts | 348° |
| 2026-05-06 03:12 | 28.55348 | -81.33571 | 7012 ft | 269 kts | 348° |
| 2026-05-06 03:13 | 28.57213 | -81.33978 | 8018 ft | 276 kts | 348° |
| 2026-05-06 03:13 | 28.59111 | -81.34367 | 9015 ft | 283 kts | 348° |
| 2026-05-06 03:13 | 28.61040 | -81.34983 | 9827 ft | 296 kts | 332° |
| 2026-05-06 03:13 | 28.62668 | -81.36395 | 10345 ft | 299 kts | 306° |
| 2026-05-06 03:14 | 28.63803 | -81.38413 | 10880 ft | 311 kts | 292° |
| 2026-05-06 03:14 | 28.64384 | -81.40774 | 11379 ft | 311 kts | 270° |
| 2026-05-06 03:14 | 28.64196 | -81.43228 | 11913 ft | 314 kts | 262° |
| 2026-05-06 03:14 | 28.63844 | -81.45699 | 12413 ft | 318 kts | 257° |
| 2026-05-06 03:15 | 28.63054 | -81.48064 | 12908 ft | 323 kts | 242° |
| 2026-05-06 03:15 | 28.61545 | -81.49987 | 13413 ft | 334 kts | 217° |
| 2026-05-06 03:15 | 28.59340 | -81.50788 | 13924 ft | 346 kts | 189° |
| 2026-05-06 03:15 | 28.56888 | -81.51081 | 14098 ft | 360 kts | 189° |
| 2026-05-06 03:16 | 28.54382 | -81.51427 | 14118 ft | 364 kts | 189° |
| 2026-05-06 03:16 | 28.51842 | -81.51779 | 14042 ft | 368 kts | 189° |
| 2026-05-06 03:16 | 28.49300 | -81.52132 | 14008 ft | 367 kts | 189° |
| 2026-05-06 03:16 | 28.46789 | -81.52480 | 14001 ft | 367 kts | 189° |
| 2026-05-06 03:17 | 28.44242 | -81.52834 | 14000 ft | 368 kts | 189° |
| 2026-05-06 03:17 | 28.42555 | -81.53068 | 14000 ft | 368 kts | 189° |
| 2026-05-06 03:17 | 28.39138 | -81.53540 | 14001 ft | 371 kts | 190° |
| 2026-05-06 03:17 | 28.36575 | -81.53821 | 14001 ft | 376 kts | 186° |
| 2026-05-06 03:18 | 28.33950 | -81.53939 | 14039 ft | 380 kts | 183° |
| 2026-05-06 03:18 | 28.31781 | -81.53977 | 13999 ft | 381 kts | 182° |
| 2026-05-06 03:18 | 28.29024 | -81.53984 | 13999 ft | 380 kts | 181° |
| 2026-05-06 03:18 | 28.26402 | -81.53970 | 14000 ft | 380 kts | 181° |
| 2026-05-06 03:19 | 28.23738 | -81.53930 | 14000 ft | 381 kts | 180° |
| 2026-05-06 03:19 | 28.21072 | -81.53775 | 14001 ft | 382 kts | 178° |
| 2026-05-06 03:19 | 28.18441 | -81.53553 | 14000 ft | 382 kts | 177° |
| 2026-05-06 03:19 | 28.15785 | -81.53297 | 14000 ft | 382 kts | 176° |
| 2026-05-06 03:20 | 28.10463 | -81.52747 | 14000 ft | 383 kts | 176° |
| 2026-05-06 03:20 | 28.07844 | -81.52440 | 13997 ft | 383 kts | 173° |
| 2026-05-06 03:20 | 28.05250 | -81.51715 | 14004 ft | 385 kts | 163° |
| 2026-05-06 03:21 | 28.02699 | -81.50768 | 14003 ft | 385 kts | 163° |
| 2026-05-06 03:21 | 28.00121 | -81.49933 | 14000 ft | 385 kts | 167° |
| 2026-05-06 03:21 | 27.97490 | -81.49405 | 14000 ft | 383 kts | 175° |
| 2026-05-06 03:21 | 27.95726 | -81.49289 | 13998 ft | 382 kts | 182° |
| 2026-05-06 03:22 | 27.92311 | -81.50086 | 14006 ft | 377 kts | 203° |
| 2026-05-06 03:22 | 27.89964 | -81.51390 | 14008 ft | 375 kts | 213° |
| 2026-05-06 03:22 | 27.88494 | -81.52441 | 14005 ft | 374 kts | 217° |
| 2026-05-06 03:22 | 27.85727 | -81.54758 | 14002 ft | 372 kts | 221° |
| 2026-05-06 03:23 | 27.84359 | -81.56007 | 14001 ft | 372 kts | 222° |
| 2026-05-06 03:23 | 27.82395 | -81.57853 | 13999 ft | 366 kts | 223° |
| 2026-05-06 03:23 | 27.79902 | -81.60210 | 13964 ft | 339 kts | 223° |
| 2026-05-06 03:23 | 27.78686 | -81.61351 | 13826 ft | 332 kts | 223° |
| 2026-05-06 03:24 | 27.76969 | -81.62938 | 13644 ft | 313 kts | 223° |
| 2026-05-06 03:24 | 27.75292 | -81.64461 | 13410 ft | 307 kts | 222° |
| 2026-05-06 03:24 | 27.73630 | -81.65943 | 13174 ft | 302 kts | 222° |
| 2026-05-06 03:24 | 27.72007 | -81.67426 | 12937 ft | 296 kts | 225° |
| 2026-05-06 03:25 | 27.70523 | -81.69019 | 12702 ft | 291 kts | 229° |
| 2026-05-06 03:25 | 27.69148 | -81.70680 | 12468 ft | 287 kts | 232° |
| 2026-05-06 03:25 | 27.67862 | -81.72357 | 12236 ft | 284 kts | 233° |
| 2026-05-06 03:25 | 27.66608 | -81.74077 | 11983 ft | 282 kts | 235° |
| 2026-05-06 03:26 | 27.65383 | -81.75816 | 11610 ft | 281 kts | 235° |
| 2026-05-06 03:26 | 27.64185 | -81.77551 | 11234 ft | 278 kts | 236° |
| 2026-05-06 03:26 | 27.63009 | -81.79277 | 10858 ft | 276 kts | 236° |
| 2026-05-06 03:26 | 27.61862 | -81.80972 | 10486 ft | 274 kts | 236° |
| 2026-05-06 03:27 | 27.60713 | -81.82675 | 10110 ft | 271 kts | 236° |
| 2026-05-06 03:27 | 27.59580 | -81.84361 | 9735 ft | 269 kts | 236° |
| 2026-05-06 03:27 | 27.58457 | -81.86033 | 9359 ft | 266 kts | 235° |
| 2026-05-06 03:27 | 27.57336 | -81.87706 | 8980 ft | 264 kts | 235° |
| 2026-05-06 03:28 | 27.56248 | -81.89327 | 8609 ft | 262 kts | 234° |
| 2026-05-06 03:28 | 27.55176 | -81.90923 | 8242 ft | 260 kts | 234° |
| 2026-05-06 03:28 | 27.54087 | -81.92544 | 7866 ft | 258 kts | 234° |
| 2026-05-06 03:28 | 27.53003 | -81.94158 | 7489 ft | 256 kts | 234° |
| 2026-05-06 03:29 | 27.51940 | -81.95739 | 7116 ft | 255 kts | 233° |
| 2026-05-06 03:29 | 27.50865 | -81.97333 | 6740 ft | 254 kts | 233° |
| 2026-05-06 03:29 | 27.49780 | -81.98885 | 6472 ft | 251 kts | 231° |
| 2026-05-06 03:29 | 27.48668 | -82.00400 | 6221 ft | 251 kts | 230° |
| 2026-05-06 03:30 | 27.47521 | -82.01893 | 5970 ft | 251 kts | 229° |
| 2026-05-06 03:30 | 27.46355 | -82.03353 | 5719 ft | 250 kts | 227° |
| 2026-05-06 03:30 | 27.45184 | -82.04772 | 5471 ft | 250 kts | 227° |
| 2026-05-06 03:30 | 27.43980 | -82.06189 | 5221 ft | 250 kts | 226° |
| 2026-05-06 03:31 | 27.42742 | -82.07564 | 4970 ft | 249 kts | 223° |
| 2026-05-06 03:31 | 27.41435 | -82.08843 | 4721 ft | 249 kts | 219° |
| 2026-05-06 03:31 | 27.40056 | -82.10017 | 4472 ft | 248 kts | 215° |
| 2026-05-06 03:31 | 27.38627 | -82.11095 | 4224 ft | 246 kts | 212° |
| 2026-05-06 03:32 | 27.37173 | -82.12066 | 3978 ft | 245 kts | 208° |
| 2026-05-06 03:32 | 27.35666 | -82.12980 | 3728 ft | 244 kts | 206° |
| 2026-05-06 03:32 | 27.34218 | -82.13981 | 3452 ft | 245 kts | 218° |
| 2026-05-06 03:32 | 27.33244 | -82.15539 | 3223 ft | 250 kts | 242° |
| 2026-05-06 03:33 | 27.32653 | -82.17390 | 2989 ft | 252 kts | 251° |
| 2026-05-06 03:33 | 27.32197 | -82.19296 | 2739 ft | 251 kts | 253° |
| 2026-05-06 03:33 | 27.31791 | -82.21203 | 2487 ft | 250 kts | 254° |
| 2026-05-06 03:33 | 27.31406 | -82.23087 | 2243 ft | 250 kts | 255° |
| 2026-05-06 03:34 | 27.31020 | -82.24990 | 2094 ft | 249 kts | 255° |
| 2026-05-06 03:34 | 27.30622 | -82.26890 | 2021 ft | 248 kts | 256° |
| 2026-05-06 03:34 | 27.30197 | -82.28776 | 1999 ft | 247 kts | 255° |
| 2026-05-06 03:34 | 27.29767 | -82.30646 | 1997 ft | 246 kts | 256° |
| 2026-05-06 03:35 | 27.29449 | -82.32463 | 2030 ft | 233 kts | 260° |
| 2026-05-06 03:35 | 27.29236 | -82.34233 | 2009 ft | 226 kts | 263° |
| 2026-05-06 03:35 | 27.29106 | -82.35978 | 1994 ft | 220 kts | 267° |
| 2026-05-06 03:35 | 27.29060 | -82.37690 | 1993 ft | 217 kts | 270° |
| 2026-05-06 03:36 | 27.29097 | -82.39381 | 1993 ft | 214 kts | 274° |
| 2026-05-06 03:36 | 27.29228 | -82.41039 | 1994 ft | 212 kts | 277° |
| 2026-05-06 03:36 | 27.29511 | -82.42632 | 1992 ft | 210 kts | 285° |
| 2026-05-06 03:36 | 27.30058 | -82.44146 | 1995 ft | 208 kts | 296° |
| 2026-05-06 03:37 | 27.30834 | -82.45508 | 1994 ft | 204 kts | 306° |
| 2026-05-06 03:37 | 27.31752 | -82.46692 | 1849 ft | 192 kts | 314° |
| 2026-05-06 03:37 | 27.32702 | -82.47686 | 1568 ft | 180 kts | 316° |
| 2026-05-06 03:37 | 27.33606 | -82.48631 | 1296 ft | 179 kts | 314° |
| 2026-05-06 03:38 | 27.34483 | -82.49598 | 1089 ft | 173 kts | 314° |
| 2026-05-06 03:38 | 27.35313 | -82.50538 | 907 ft | 172 kts | 313° |
| 2026-05-06 03:38 | 27.36155 | -82.51517 | 713 ft | 168 kts | 312° |
| 2026-05-06 03:38 | 27.36952 | -82.52472 | 482 ft | 168 kts | 311° |
| 2026-05-06 03:39 | 27.37765 | -82.53427 | 278 ft | 164 kts | 313° |
| 2026-05-06 03:39 | 27.38520 | -82.54310 | 100 ft | 148 kts | 314° |
| 2026-05-06 03:39 | 27.39190 | -82.55092 | 40 ft | 121 kts | 314° |
| 2026-05-06 03:39 | 27.39570 | -82.55534 | 40 ft | 43 kts | 316° |
| 2026-05-06 03:40 | 27.39660 | -82.55670 | 40 ft | 10 kts | 267° |
| 2026-05-06 03:40 | 27.39657 | -82.55714 | 40 ft | 3 kts | 251° |
| 2026-05-06 03:40 | 27.39616 | -82.55739 | 40 ft | 9 kts | 155° |
| 2026-05-06 03:40 | 27.39544 | -82.55667 | 40 ft | 17 kts | 134° |
| 2026-05-06 03:41 | 27.39459 | -82.55576 | 40 ft | 22 kts | 135° |
| 2026-05-06 03:41 | 27.39358 | -82.55460 | 40 ft | 22 kts | 135° |
| 2026-05-06 03:41 | 27.39256 | -82.55421 | 40 ft | 16 kts | 228° |
| 2026-05-06 03:41 | 27.39141 | -82.55482 | 40 ft | 21 kts | 170° |
| 2026-05-06 03:42 | 27.39030 | -82.55480 | 40 ft | 18 kts | 140° |
| 2026-05-06 03:42 | 27.39012 | -82.55434 | 40 ft | 0 kts | 92° |